Darstellungsparameter: Aktuell verwendete Einstellungen:
Skalierung der Graphiken ... ?
xyx+y,   Skalierungsfaktor:      Skalierung: Modus: x, Faktor: 1
Darstellungszeitraum ... ?
Vom - - bis: - -   Zeitraum: 29.12.2009 - 29.12.2009
Min/Max/Avg-Anzeige ... ?
Zeige MMA aktuell
Zeige MMA Monat
Zeige MMA alles
Zeige --A aktuell
Zeige --A Monat
Zeige --A alles
Keine MMA-Anzeige
MMA:
Average (ber die Originaldaten)
MMA-Basis: 29.12.2009 - 29.12.2009
Quicknavigation für Darstellung... ?
Tage:      1T, 2T, 3T, 5T -1T -2T -3T -5T +1T +2T +3T +5T
Wochen: 1W, 2W, 3W -1W -2W -3W +1W +2W +3W
Monate: 1M, 3M, 6M -1M -3M -6M +1M +3M +6M
Jahre:    1J, 3J, 5J, 10J -1J -3J -5J -10J +1J +3J +5J +10J
Nutze für die Darstellung ... ?
Originaldaten oder Mittelwerte auf ...
Stundenbasis Tagesbasis Wochenbasis
Monatsbasis Jahresbasis      Datenbasis: Original-Daten
Darstellen als:
Statistik (Auto) Statistik J:M      Darstellung:
Zur Graphik,    zurück zur Übersicht aller Sensoren.
 
Tabellarische Datenbersicht: ?
 
Sensor: Nr:Datum:Temp:Abs-Feuchte:Windchill:Wind:
Aussen-T/F 1 29-12-2009 00:03:03 -1.8 C 3.72 g/m*3 -1.8 C 0 km/h
2 29-12-2009 00:15:03 -1.7 C 3.75 g/m*3 -1.7 C 0 km/h
3 29-12-2009 00:27:03 -2 C 3.67 g/m*3 -2 C 0 km/h
4 29-12-2009 00:39:03 -2 C 3.71 g/m*3 -2 C 0 km/h
5 29-12-2009 00:51:03 -2.2 C 3.66 g/m*3 -2.2 C 0 km/h
6 29-12-2009 01:03:03 -2.1 C 3.68 g/m*3 -2.1 C 0 km/h
7 29-12-2009 01:15:03 -2.1 C 3.68 g/m*3 -2.1 C 0 km/h
8 29-12-2009 01:27:03 -2.1 C 3.73 g/m*3 -2.1 C 0 km/h
9 29-12-2009 01:39:03 -2.2 C 3.66 g/m*3 -2.2 C 0 km/h
10 29-12-2009 01:51:03 -2.1 C 3.73 g/m*3 -2.1 C 0 km/h
11 29-12-2009 02:03:03 -2.2 C 3.7 g/m*3 -2.2 C 0 km/h
12 29-12-2009 02:15:03 -2.3 C 3.67 g/m*3 -2.3 C 0 km/h
13 29-12-2009 02:27:03 -2.3 C 3.67 g/m*3 -2.3 C 0 km/h
14 29-12-2009 02:39:03 -2.3 C 3.67 g/m*3 -2.3 C 0 km/h
15 29-12-2009 02:51:04 -2.1 C 3.77 g/m*3 -2.1 C 0 km/h
16 29-12-2009 03:03:04 -2 C 3.79 g/m*3 -2 C 0 km/h
17 29-12-2009 03:15:04 -2.1 C 3.77 g/m*3 -2.1 C 0 km/h
18 29-12-2009 03:27:04 -2.2 C 3.74 g/m*3 -2.2 C 0 km/h
19 29-12-2009 03:39:04 -2.3 C 3.71 g/m*3 -2.3 C 0 km/h
20 29-12-2009 03:51:04 -2.2 C 3.78 g/m*3 -2.2 C 0 km/h
21 29-12-2009 04:03:04 -2.5 C 3.66 g/m*3 -2.5 C 0 km/h
22 29-12-2009 04:15:04 -2.5 C 3.66 g/m*3 -2.5 C 0 km/h
23 29-12-2009 04:27:04 -2.6 C 3.68 g/m*3 -2.6 C 0 km/h
24 29-12-2009 04:39:04 -2.6 C 3.68 g/m*3 -2.6 C 0 km/h
25 29-12-2009 04:51:04 -2.6 C 3.68 g/m*3 -2.6 C 0 km/h
Sensor: Nr:Datum:Temp:Abs-Feuchte:Windchill:Wind:
Aussen-T/F 26 29-12-2009 05:03:04 -2.8 C 3.63 g/m*3 -2.8 C 0 km/h
27 29-12-2009 05:15:04 -2.7 C 3.65 g/m*3 -2.7 C 0 km/h
28 29-12-2009 05:27:04 -2.7 C 3.69 g/m*3 -2.7 C 0 km/h
29 29-12-2009 05:39:04 -2.8 C 3.67 g/m*3 -2.8 C 0 km/h
30 29-12-2009 05:51:04 -2.9 C 3.64 g/m*3 -2.9 C 0 km/h
31 29-12-2009 06:03:04 -2.9 C 3.64 g/m*3 -2.9 C 0 km/h
32 29-12-2009 06:15:04 -2.9 C 3.64 g/m*3 -2.9 C 0 km/h
33 29-12-2009 06:27:04 -2.6 C 3.72 g/m*3 -2.6 C 0 km/h
34 29-12-2009 06:39:04 -2.3 C 3.84 g/m*3 -2.3 C 0 km/h
35 29-12-2009 06:51:04 -1.9 C 3.95 g/m*3 -1.9 C 0 km/h
36 29-12-2009 07:03:04 -1.7 C 4.05 g/m*3 -1.7 C 0 km/h
37 29-12-2009 07:15:05 -1.6 C 4.07 g/m*3 -1.6 C 0 km/h
38 29-12-2009 07:27:05 -1.3 C 4.16 g/m*3 -1.3 C 0 km/h
39 29-12-2009 07:39:02 -1.2 C 4.19 g/m*3 -1.2 C 0 km/h
40 29-12-2009 07:51:01 -1.1 C 4.22 g/m*3 -1.1 C 0 km/h
41 29-12-2009 08:03:01 -1.2 C 4.19 g/m*3 -1.2 C 0 km/h
42 29-12-2009 08:15:02 -1 C 4.25 g/m*3 -1 C 0 km/h
43 29-12-2009 08:27:02 -0.9 C 4.28 g/m*3 -0.9 C 0 km/h
44 29-12-2009 08:39:02 -0.7 C 4.34 g/m*3 -0.7 C 0 km/h
45 29-12-2009 08:51:02 -0.5 C 4.45 g/m*3 -0.5 C 0 km/h
46 29-12-2009 09:03:02 -0.3 C 4.51 g/m*3 -0.3 C 0 km/h
47 29-12-2009 09:15:02 -0.1 C 4.57 g/m*3 -0.1 C 0 km/h
48 29-12-2009 09:27:02 0.1 C 4.63 g/m*3 0.1 C 0 km/h
49 29-12-2009 09:39:02 0.3 C 4.7 g/m*3 0.3 C 0 km/h
50 29-12-2009 09:51:01 0.4 C 4.68 g/m*3 0.4 C 0 km/h
Sensor: Nr:Datum:Temp:Abs-Feuchte:Windchill:Wind:
Aussen-T/F 51 29-12-2009 10:03:02 0.6 C 4.75 g/m*3 0.6 C 0 km/h
52 29-12-2009 10:15:02 0.7 C 4.78 g/m*3 0.7 C 0 km/h
53 29-12-2009 10:27:02 1 C 4.83 g/m*3 1 C 0 km/h
54 29-12-2009 10:39:02 1.3 C 4.87 g/m*3 1.3 C 0 km/h
55 29-12-2009 10:51:01 1.4 C 4.91 g/m*3 1.4 C 0 km/h
56 29-12-2009 11:03:02 1.6 C 4.92 g/m*3 1.6 C 0 km/h
57 29-12-2009 11:15:02 1.8 C 4.93 g/m*3 1.8 C 0 km/h
58 29-12-2009 11:27:02 1.8 C 4.88 g/m*3 1.8 C 0 km/h
59 29-12-2009 11:39:01 1.9 C 4.86 g/m*3 1.9 C 0 km/h
60 29-12-2009 11:51:02 2.2 C 4.9 g/m*3 2.2 C 0 km/h
61 29-12-2009 12:03:01 2.3 C 4.82 g/m*3 2.3 C 0 km/h
62 29-12-2009 12:15:01 2.2 C 4.79 g/m*3 2.2 C 0 km/h
63 29-12-2009 12:27:02 2.3 C 4.82 g/m*3 2.3 C 0 km/h
64 29-12-2009 12:39:01 2.3 C 4.88 g/m*3 2.3 C 0 km/h
65 29-12-2009 12:51:02 2.3 C 4.88 g/m*3 2.3 C 0 km/h
66 29-12-2009 13:03:02 2.3 C 4.93 g/m*3 2.3 C 0 km/h
67 29-12-2009 13:15:02 2.2 C 4.96 g/m*3 2.2 C 0 km/h
68 29-12-2009 13:27:02 2.1 C 4.92 g/m*3 2.1 C 0 km/h
69 29-12-2009 13:39:02 1.9 C 4.91 g/m*3 1.9 C 0 km/h
70 29-12-2009 13:51:02 1.8 C 4.93 g/m*3 1.8 C 0 km/h
71 29-12-2009 14:03:02 1.8 C 4.93 g/m*3 1.8 C 0 km/h
72 29-12-2009 14:15:01 1.8 C 4.93 g/m*3 1.8 C 0 km/h
73 29-12-2009 14:27:01 1.8 C 4.99 g/m*3 1.8 C 0 km/h
74 29-12-2009 14:39:02 1.9 C 5.08 g/m*3 1.9 C 0 km/h
75 29-12-2009 14:51:02 1.9 C 5.08 g/m*3 1.9 C 0 km/h
Sensor: Nr:Datum:Temp:Abs-Feuchte:Windchill:Wind:
Aussen-T/F 76 29-12-2009 15:03:02 2 C 5.06 g/m*3 2 C 0 km/h
77 29-12-2009 15:15:01 2 C 5.11 g/m*3 2 C 0 km/h
78 29-12-2009 15:27:01 1.9 C 5.13 g/m*3 1.9 C 0 km/h
79 29-12-2009 15:39:02 1.9 C 5.13 g/m*3 1.9 C 0 km/h
80 29-12-2009 15:51:02 1.9 C 5.13 g/m*3 1.9 C 0 km/h
81 29-12-2009 16:03:02 1.9 C 5.13 g/m*3 1.9 C 0 km/h
82 29-12-2009 16:15:02 1.9 C 5.13 g/m*3 1.9 C 0 km/h
83 29-12-2009 16:27:02 1.8 C 5.15 g/m*3 1.8 C 0 km/h
84 29-12-2009 16:39:02 1.8 C 5.15 g/m*3 1.8 C 0 km/h
85 29-12-2009 16:51:01 1.9 C 5.19 g/m*3 1.9 C 0 km/h
86 29-12-2009 17:03:02 1.9 C 5.19 g/m*3 1.9 C 0 km/h
87 29-12-2009 17:15:01 2 C 5.22 g/m*3 2 C 0 km/h
88 29-12-2009 17:27:01 2 C 5.28 g/m*3 2 C 0 km/h
89 29-12-2009 17:39:01 2.1 C 5.31 g/m*3 2.1 C 0 km/h
90 29-12-2009 17:51:02 2.1 C 5.31 g/m*3 2.1 C 0 km/h
91 29-12-2009 18:03:02 2.1 C 5.31 g/m*3 2.1 C 0 km/h
92 29-12-2009 18:15:01 2.2 C 5.35 g/m*3 2.2 C 0 km/h
93 29-12-2009 18:27:01 2.2 C 5.35 g/m*3 2.2 C 0 km/h
94 29-12-2009 18:39:02 2.2 C 5.35 g/m*3 2.2 C 0 km/h
95 29-12-2009 18:51:02 2.4 C 5.42 g/m*3 2.4 C 0 km/h
96 29-12-2009 19:03:02 2.3 C 5.39 g/m*3 2.3 C 0 km/h
97 29-12-2009 19:15:01 2.4 C 5.42 g/m*3 2.4 C 0 km/h
98 29-12-2009 19:27:01 2.4 C 5.42 g/m*3 2.4 C 0 km/h
99 29-12-2009 19:39:02 2.4 C 5.42 g/m*3 2.4 C 0 km/h
100 29-12-2009 19:51:02 2.4 C 5.42 g/m*3 2.4 C 0 km/h
Sensor: Nr:Datum:Temp:Abs-Feuchte:Windchill:Wind:
Aussen-T/F 101 29-12-2009 20:03:02 2.4 C 5.42 g/m*3 2.4 C 0 km/h
102 29-12-2009 20:15:02 2.4 C 5.42 g/m*3 2.4 C 0 km/h
103 29-12-2009 20:27:02 2.4 C 5.42 g/m*3 2.4 C 0 km/h
104 29-12-2009 20:39:02 2.4 C 5.42 g/m*3 2.4 C 0 km/h
105 29-12-2009 20:51:02 2.4 C 5.42 g/m*3 2.4 C 0 km/h
106 29-12-2009 21:03:02 2.4 C 5.42 g/m*3 2.4 C 0 km/h
107 29-12-2009 21:15:03 2.5 C 5.46 g/m*3 2.5 C 0 km/h
108 29-12-2009 21:27:03 2.5 C 5.46 g/m*3 2.5 C 0 km/h
109 29-12-2009 21:39:02 2.5 C 5.46 g/m*3 2.5 C 0 km/h
110 29-12-2009 21:51:02 2.5 C 5.46 g/m*3 2.5 C 0 km/h
111 29-12-2009 22:03:02 2.5 C 5.46 g/m*3 2.5 C 0 km/h
112 29-12-2009 22:15:02 2.5 C 5.46 g/m*3 2.5 C 0 km/h
113 29-12-2009 22:27:02 2.5 C 5.46 g/m*3 2.5 C 0 km/h
114 29-12-2009 22:39:02 2.5 C 5.46 g/m*3 2.5 C 0 km/h
115 29-12-2009 22:51:02 2.6 C 5.5 g/m*3 2.6 C 0 km/h
116 29-12-2009 23:04:51 2.6 C 5.5 g/m*3 2.6 C 0 km/h
117 29-12-2009 23:16:51 2.7 C 5.54 g/m*3 2.7 C 0 km/h
118 29-12-2009 23:28:51 2.7 C 5.54 g/m*3 2.7 C 0 km/h
119 29-12-2009 23:40:51 2.8 C 5.57 g/m*3 2.8 C 0 km/h
120 29-12-2009 23:52:51 2.8 C 5.57 g/m*3 2.8 C 0 km/h

Legende:
   Min
   Max


Maximal/Minimal-Werte vom 29.12.2009 - 29.12.2009

Sensor Min Max Avg
Temp
(Aussen-T/F)
-2.9 °C
29-12-2009  05:51:04
2.8 °C
29-12-2009  23:40:51
0.46 °C
Abs-Feuchte
(Aussen-T/F)
3.63 g/m*3
29-12-2009  05:03:04
5.57 g/m*3
29-12-2009  23:40:51
4.61 g/m*3
Windchill
(Aussen-T/F)
-2.9 C
29-12-2009  05:51:04
2.8 C
29-12-2009  23:40:51
0.46 C

Die Daten stammen von einer Davis Vantage Pro 2 Wetter-Station und werden unter Linux mit der Software wview2wettercgi und aufbereitet. Alle Angaben erfolgen ohne Gewähr für ihre Vollständigkeit oder Richtigkeit.
Kontakt: Rainer Krienke krienke@uni-koblenz.de . Meine Webseiten an der Uni Koblenz oder privat.
Version: $Revision: 0.78 $